Time;durP1;ratioP1;P1;durP2;ratioP2;P2;SDS_P1;SDS_P2;PMS_P1;PMS_P2;Temp;Humidity;BMP_temperature;BMP_pressure;BME280_temperature;BME280_humidity;BME280_pressure;Samples;Min_cycle;Max_cycle;Signal;HPM_P1;HPM_P2
2022/09/06 00:00:07;;;;;;;;;;;;;;;17.02;46.89;101514.19;4873618;29;1907;-56
2022/09/06 00:02:37;;;;;;;;;;;;;;;17.04;47.72;101514.78;4877833;29;989;-56
2022/09/06 00:05:03;;;;;;;;;;;;;;;16.78;47.53;101516.38;4878618;29;1001;-56
2022/09/06 00:07:28;;;;;;;;;;;;;;;16.69;46.72;101527.00;4878287;29;838;-55
2022/09/06 00:09:55;;;;;;;;;;;;;;;17.89;47.15;101518.81;4880983;29;1412;-55
2022/09/06 00:12:21;;;;;;;;;;;;;;;17.10;47.99;101516.47;4879978;29;1230;-55
2022/09/06 00:14:46;;;;;;;;;;;;;;;16.80;47.83;101518.88;4882057;29;1021;-56
2022/09/06 00:17:11;;;;;;;;;;;;;;;16.77;46.93;101507.31;4870905;29;1175;-56
2022/09/06 00:19:37;;;;;;;;;;;;;;;16.75;46.67;101498.50;4879928;29;1974;-56
2022/09/06 00:22:02;;;;;;;;;;;;;;;17.36;47.47;101502.16;4871811;29;1311;-56
2022/09/06 00:24:28;;;;;;;;;;;;;;;16.95;47.58;101507.25;4873959;29;997;-54
2022/09/06 00:26:53;;;;;;;;;;;;;;;16.80;47.19;101505.13;4878992;29;1012;-55
2022/09/06 00:29:19;;;;;;;;;;;;;;;16.75;46.78;101506.72;4882286;29;1230;-56
2022/09/06 00:31:44;;;;;;;;;;;;;;;16.58;46.34;101515.03;4870983;29;980;-55
2022/09/06 00:34:10;;;;;;;;;;;;;;;17.64;47.02;101509.25;4867664;29;1223;-55
2022/09/06 00:36:35;;;;;;;;;;;;;;;17.23;47.90;101503.41;4864710;29;1096;-55
2022/09/06 00:39:00;;;;;;;;;;;;;;;16.89;47.64;101503.63;4879367;29;1951;-55
2022/09/06 00:41:26;;;;;;;;;;;;;;;16.79;47.17;101508.97;4878566;29;1109;-55
2022/09/06 00:43:52;;;;;;;;;;;;;;;16.89;47.17;101506.38;4880170;29;895;-55
2022/09/06 00:46:18;;;;;;;;;;;;;;;17.26;47.53;101503.75;4870267;29;1127;-55
2022/09/06 00:48:44;;;;;;;;;;;;;;;16.96;47.45;101509.75;4880020;29;1178;-55
2022/09/06 00:51:10;;;;;;;;;;;;;;;16.80;46.96;101519.69;4881485;29;1081;-55
2022/09/06 00:53:35;;;;;;;;;;;;;;;16.67;46.81;101512.66;4867089;29;974;-55
2022/09/06 00:56:01;;;;;;;;;;;;;;;17.60;47.50;101516.41;4875852;29;1020;-54
2022/09/06 00:58:26;;;;;;;;;;;;;;;16.93;48.00;101510.25;4872135;29;994;-56
2022/09/06 01:00:52;;;;;;;;;;;;;;;16.77;47.27;101521.06;4875101;29;1918;-55
2022/09/06 01:03:18;;;;;;;;;;;;;;;16.74;46.57;101516.03;4878155;29;997;-55
2022/09/06 01:06:03;;;;;;;;;;;;;;;16.64;46.33;101521.44;4866778;29;1108;-53
2022/09/06 01:08:37;;;;;;;;;;;;;;;16.57;46.13;101518.88;4870115;29;997;-56
2022/09/06 01:11:06;;;;;;;;;;;;;;;17.36;46.92;101522.25;4873554;29;1123;-55
2022/09/06 01:14:08;;;;;;;;;;;;;;;16.98;47.13;101524.03;4878369;29;1000;-55
2022/09/06 01:16:35;;;;;;;;;;;;;;;18.29;47.13;101522.94;4840180;29;1289;-55
2022/09/06 01:19:00;;;;;;;;;;;;;;;17.34;48.72;101532.66;4870896;29;1981;-56
2022/09/06 01:21:28;;;;;;;;;;;;;;;17.07;48.00;101527.19;4869468;29;1158;-55
2022/09/06 01:24:17;;;;;;;;;;;;;;;16.97;47.14;101521.56;4878770;29;1009;-55
2022/09/06 01:26:51;;;;;;;;;;;;;;;16.84;46.79;101522.75;4841049;29;1289;-55
2022/09/06 01:29:46;;;;;;;;;;;;;;;16.74;46.53;101528.97;4880958;29;1049;-55
2022/09/06 01:32:11;;;;;;;;;;;;;;;16.71;45.73;101518.50;4862490;29;1642;-56
2022/09/06 01:34:38;;;;;;;;;;;;;;;17.60;46.76;101517.22;4870384;29;1064;-55
2022/09/06 01:37:11;;;;;;;;;;;;;;;17.10;47.62;101521.97;4871976;29;973;-56
2022/09/06 01:39:37;;;;;;;;;;;;;;;16.84;47.36;101518.09;4875106;29;1903;-56
2022/09/06 01:42:07;;;;;;;;;;;;;;;16.76;46.68;101522.13;4874725;29;1009;-55
2022/09/06 01:44:32;;;;;;;;;;;;;;;16.60;46.70;101512.03;4869461;29;1048;-56
2022/09/06 01:47:07;;;;;;;;;;;;;;;16.58;46.22;101516.97;4875857;29;1223;-55
2022/09/06 01:49:38;;;;;;;;;;;;;;;17.16;47.39;101508.31;4869965;29;1099;-57
2022/09/06 01:52:07;;;;;;;;;;;;;;;16.77;47.30;101506.47;4875075;29;1167;-56
2022/09/06 01:54:51;;;;;;;;;;;;;;;16.72;46.52;101503.69;4874016;29;1072;-57
2022/09/06 01:57:26;;;;;;;;;;;;;;;16.80;46.90;101505.94;4865927;29;939;-56
2022/09/06 02:00:01;;;;;;;;;;;;;;;17.18;47.43;101504.22;4870225;29;1977;-56
2022/09/06 02:02:30;;;;;;;;;;;;;;;16.74;47.28;101501.50;4870755;29;1097;-55
2022/09/06 02:04:56;;;;;;;;;;;;;;;16.67;46.78;101504.44;4876925;29;1025;-55
2022/09/06 02:07:22;;;;;;;;;;;;;;;16.60;46.19;101498.31;4872393;29;1108;-54
2022/09/06 02:09:55;;;;;;;;;;;;;;;16.57;45.70;101496.09;4867685;29;975;-54
2022/09/06 02:12:21;;;;;;;;;;;;;;;16.68;46.28;101508.84;4874741;29;1150;-56
2022/09/06 02:14:51;;;;;;;;;;;;;;;17.23;47.39;101498.75;4878489;29;1168;-57
2022/09/06 02:17:18;;;;;;;;;;;;;;;16.77;47.57;101490.84;4878634;29;1179;-54
2022/09/06 02:19:45;;;;;;;;;;;;;;;16.65;46.88;101497.53;4880010;29;1911;-54
2022/09/06 02:22:11;;;;;;;;;;;;;;;17.49;46.88;101487.13;4869843;29;1260;-55
2022/09/06 02:24:38;;;;;;;;;;;;;;;16.92;47.67;101481.13;4882815;29;1014;-55
2022/09/06 02:27:03;;;;;;;;;;;;;;;16.73;47.06;101484.19;4876123;29;1095;-55
2022/09/06 02:29:29;;;;;;;;;;;;;;;16.65;46.54;101484.66;4881162;29;1148;-54
2022/09/06 02:32:02;;;;;;;;;;;;;;;18.01;46.85;101489.22;4882635;29;1021;-55
2022/09/06 02:34:28;;;;;;;;;;;;;;;17.13;48.18;101482.16;4882821;29;1257;-54
2022/09/06 02:36:54;;;;;;;;;;;;;;;16.84;47.74;101485.13;4874512;29;974;-55
2022/09/06 02:39:19;;;;;;;;;;;;;;;16.83;46.84;101482.63;4882848;29;1911;-56
2022/09/06 02:41:45;;;;;;;;;;;;;;;16.66;46.38;101483.56;4875348;29;1190;-55
2022/09/06 02:44:10;;;;;;;;;;;;;;;16.60;46.22;101479.09;4880216;29;1144;-55
2022/09/06 02:46:35;;;;;;;;;;;;;;;16.49;45.80;101488.28;4876255;29;1135;-55
2022/09/06 02:49:02;;;;;;;;;;;;;;;17.43;46.90;101478.88;4882244;29;1021;-55
2022/09/06 02:51:28;;;;;;;;;;;;;;;16.93;47.11;101477.31;4881504;29;1000;-52
2022/09/06 02:53:53;;;;;;;;;;;;;;;18.23;47.47;101477.19;4882628;29;1158;-53
2022/09/06 02:56:19;;;;;;;;;;;;;;;15.48;54.72;101479.13;4883328;29;1005;-56
2022/09/06 02:58:44;;;;;;;;;;;;;;;15.79;51.92;101485.09;4872059;29;1345;-56
2022/09/06 03:01:10;;;;;;;;;;;;;;;16.75;49.87;101479.25;4884460;29;1888;-54
2022/09/06 03:03:35;;;;;;;;;;;;;;;17.15;50.11;101479.16;4875179;29;1036;-53
2022/09/06 03:06:01;;;;;;;;;;;;;;;16.81;49.34;101482.91;4877719;29;965;-56
2022/09/06 03:08:32;;;;;;;;;;;;;;;16.77;48.67;101479.00;4876147;29;1076;-56
2022/09/06 03:10:57;;;;;;;;;;;;;;;17.43;49.68;101489.88;4871653;29;966;-54
2022/09/06 03:13:23;;;;;;;;;;;;;;;17.04;49.08;101484.56;4879266;29;1084;-49
2022/09/06 03:15:49;;;;;;;;;;;;;;;16.83;48.07;101483.47;4881537;29;1128;-56
2022/09/06 03:18:14;;;;;;;;;;;;;;;17.78;48.96;101484.88;4878059;29;982;-51
2022/09/06 03:20:40;;;;;;;;;;;;;;;17.27;49.38;101483.38;4875004;29;1911;-55
2022/09/06 03:23:05;;;;;;;;;;;;;;;16.99;48.63;101486.44;4876486;29;1048;-54
2022/09/06 03:25:31;;;;;;;;;;;;;;;16.81;47.74;101487.56;4879473;29;1057;-50
2022/09/06 03:27:56;;;;;;;;;;;;;;;16.65;47.60;101483.81;4880600;29;1159;-53
2022/09/06 03:30:22;;;;;;;;;;;;;;;16.60;46.87;101479.91;4883802;29;1024;-50
2022/09/06 03:32:47;;;;;;;;;;;;;;;16.92;47.39;101483.88;4873122;29;1048;-49
2022/09/06 03:35:13;;;;;;;;;;;;;;;17.00;48.58;101486.16;4867010;29;1057;-54
2022/09/06 03:37:39;;;;;;;;;;;;;;;16.74;48.01;101480.34;4878592;29;953;-49
2022/09/06 03:40:05;;;;;;;;;;;;;;;16.69;47.34;101477.56;4874718;29;1919;-52
2022/09/06 03:42:30;;;;;;;;;;;;;;;16.63;46.76;101475.00;4879640;29;1001;-51
2022/09/06 03:44:56;;;;;;;;;;;;;;;16.94;47.08;101484.44;4877315;29;1187;-52
2022/09/06 03:47:21;;;;;;;;;;;;;;;17.52;48.33;101478.38;4877654;29;1083;-53
2022/09/06 03:49:47;;;;;;;;;;;;;;;16.96;48.11;101481.41;4880414;29;1052;-52
2022/09/06 03:52:12;;;;;;;;;;;;;;;16.83;47.58;101483.47;4879258;29;1274;-51
2022/09/06 03:54:38;;;;;;;;;;;;;;;16.60;47.41;101484.59;4880042;29;1317;-53
2022/09/06 03:57:03;;;;;;;;;;;;;;;16.54;46.65;101491.94;4875744;29;1540;-53
2022/09/06 03:59:29;;;;;;;;;;;;;;;17.27;47.40;101488.06;4874622;29;1976;-56
2022/09/06 04:01:54;;;;;;;;;;;;;;;16.97;48.20;101486.69;4882063;29;1309;-57
2022/09/06 04:04:20;;;;;;;;;;;;;;;16.67;48.44;101487.97;4883438;29;1207;-55
2022/09/06 04:06:45;;;;;;;;;;;;;;;16.52;47.95;101493.25;4877457;29;1229;-56
2022/09/06 04:09:11;;;;;;;;;;;;;;;16.51;47.31;101497.09;4872578;29;1021;-53
2022/09/06 04:11:36;;;;;;;;;;;;;;;16.31;46.97;101497.66;4864427;29;1261;-53
2022/09/06 04:14:02;;;;;;;;;;;;;;;16.32;46.73;101500.16;4865021;29;1013;-53
2022/09/06 04:16:27;;;;;;;;;;;;;;;16.19;46.90;101497.78;4877968;29;1163;-53
2022/09/06 04:18:53;;;;;;;;;;;;;;;16.21;46.47;101498.34;4883280;29;1976;-51
2022/09/06 04:21:18;;;;;;;;;;;;;;;16.18;46.18;101499.69;4879271;29;2542;-50
2022/09/06 04:23:43;;;;;;;;;;;;;;;16.10;46.10;101502.03;4874796;29;2855;-56
2022/09/06 04:26:09;;;;;;;;;;;;;;;16.03;46.51;101503.06;4874465;29;2121;-56
2022/09/06 04:28:34;;;;;;;;;;;;;;;16.11;45.96;101501.78;4881248;29;1993;-54
2022/09/06 04:31:00;;;;;;;;;;;;;;;15.98;45.89;101502.97;4877366;29;1890;-52
2022/09/06 04:33:26;;;;;;;;;;;;;;;16.85;47.00;101499.69;4873598;29;1803;-55
2022/09/06 04:35:58;;;;;;;;;;;;;;;16.50;47.71;101503.69;4877207;29;2116;-52
2022/09/06 04:38:24;;;;;;;;;;;;;;;16.23;47.29;101496.19;4894244;29;2010;-51
2022/09/06 04:40:49;;;;;;;;;;;;;;;16.20;46.83;101496.69;4874108;29;1911;-54
2022/09/06 04:43:15;;;;;;;;;;;;;;;16.10;46.63;101485.59;4876257;29;1096;-55
2022/09/06 04:45:40;;;;;;;;;;;;;;;16.08;46.57;101497.63;4875399;29;1115;-54
2022/09/06 04:48:06;;;;;;;;;;;;;;;16.85;47.16;101496.97;4875368;29;1183;-55
2022/09/06 04:50:31;;;;;;;;;;;;;;;16.33;47.75;101501.81;4875169;29;1065;-54
2022/09/06 04:53:03;;;;;;;;;;;;;;;16.26;47.14;101501.19;4874388;29;1044;-54
2022/09/06 04:55:30;;;;;;;;;;;;;;;16.04;47.16;101501.97;4876707;29;1258;-54
2022/09/06 04:57:59;;;;;;;;;;;;;;;16.12;46.57;101505.34;4876245;29;1040;-55
2022/09/06 05:00:27;;;;;;;;;;;;;;;16.07;46.65;101506.13;4873788;29;1899;-56
2022/09/06 05:02:53;;;;;;;;;;;;;;;16.00;46.39;101503.53;4875409;29;1120;-53
2022/09/06 05:05:19;;;;;;;;;;;;;;;15.88;46.58;101500.91;4875289;29;1185;-54
2022/09/06 05:07:44;;;;;;;;;;;;;;;16.01;45.92;101505.22;4875153;29;2175;-55
2022/09/06 05:10:10;;;;;;;;;;;;;;;16.63;46.81;101505.22;4873971;29;1273;-54
2022/09/06 05:12:35;;;;;;;;;;;;;;;16.40;47.78;101505.19;4873832;29;1064;-52
2022/09/06 05:15:00;;;;;;;;;;;;;;;16.16;47.63;101506.50;4872959;29;1245;-54
2022/09/06 05:17:26;;;;;;;;;;;;;;;16.20;47.23;101504.91;4876162;29;1246;-54
2022/09/06 05:19:51;;;;;;;;;;;;;;;17.42;47.28;101501.94;4872599;29;1978;-55
2022/09/06 05:22:17;;;;;;;;;;;;;;;16.56;48.96;101516.38;4876923;29;1195;-54
2022/09/06 05:24:42;;;;;;;;;;;;;;;16.37;48.53;101516.69;4875330;29;1380;-52
2022/09/06 05:27:08;;;;;;;;;;;;;;;16.38;47.59;101515.63;4875645;29;1151;-53
2022/09/06 05:29:33;;;;;;;;;;;;;;;16.24;47.43;101514.31;4874396;29;1258;-53
2022/09/06 05:31:59;;;;;;;;;;;;;;;16.14;46.81;101520.47;4874506;29;1191;-53
2022/09/06 05:34:24;;;;;;;;;;;;;;;17.17;47.65;101515.47;4873534;29;1250;-53
2022/09/06 05:36:50;;;;;;;;;;;;;;;16.56;48.59;101511.75;4869511;29;2315;-56
2022/09/06 05:39:18;;;;;;;;;;;;;;;16.36;48.18;101522.44;4874281;29;1907;-54
2022/09/06 05:41:43;;;;;;;;;;;;;;;16.33;47.73;101514.72;4870518;29;1025;-55
2022/09/06 05:44:09;;;;;;;;;;;;;;;17.54;46.12;101509.19;4870845;29;1036;-56
2022/09/06 05:46:40;;;;;;;;;;;;;;;17.07;47.64;101517.00;4873447;29;973;-53
2022/09/06 05:49:06;;;;;;;;;;;;;;;16.83;48.46;101510.09;4873550;29;1132;-56
2022/09/06 05:51:32;;;;;;;;;;;;;;;16.73;49.16;101514.41;4878488;29;1063;-54
2022/09/06 05:53:57;;;;;;;;;;;;;;;16.50;49.43;101498.19;4877037;29;1123;-55
2022/09/06 05:56:23;;;;;;;;;;;;;;;16.54;49.94;101518.56;4881238;29;1016;-55
2022/09/06 05:58:49;;;;;;;;;;;;;;;16.48;50.13;101520.41;4877105;29;1380;-55
2022/09/06 06:01:17;;;;;;;;;;;;;;;16.41;50.59;101519.75;4873618;29;1907;-53
2022/09/06 06:03:48;;;;;;;;;;;;;;;16.32;50.97;101518.53;4879565;29;996;-53
2022/09/06 06:06:14;;;;;;;;;;;;;;;16.26;51.03;101520.38;4876065;29;1213;-54
2022/09/06 06:08:39;;;;;;;;;;;;;;;16.24;51.28;101514.31;4866901;29;2528;-55
2022/09/06 06:11:04;;;;;;;;;;;;;;;16.21;51.52;101518.38;4867804;29;887;-53
2022/09/06 06:13:33;;;;;;;;;;;;;;;16.20;51.52;101518.63;4879193;29;1091;-56
2022/09/06 06:15:59;;;;;;;;;;;;;;;16.09;51.99;101514.94;4875345;29;1056;-53
2022/09/06 06:18:25;;;;;;;;;;;;;;;16.05;52.01;101511.84;4881338;29;1084;-53
2022/09/06 06:20:50;;;;;;;;;;;;;;;16.07;52.22;101517.09;4882263;29;1919;-54
2022/09/06 06:23:16;;;;;;;;;;;;;;;16.02;52.31;101512.38;4878458;29;855;-54
2022/09/06 06:25:41;;;;;;;;;;;;;;;15.96;52.37;101515.28;4882689;29;1044;-57
2022/09/06 06:28:07;;;;;;;;;;;;;;;15.94;52.56;101521.03;4873053;29;1114;-52
2022/09/06 06:30:32;;;;;;;;;;;;;;;15.89;52.70;101512.72;4880547;29;1120;-54
2022/09/06 06:32:59;;;;;;;;;;;;;;;15.87;52.85;101517.63;4882148;29;1444;-56
2022/09/06 06:35:24;;;;;;;;;;;;;;;17.29;49.91;101510.59;4882191;29;1123;-56
2022/09/06 06:37:50;;;;;;;;;;;;;;;16.56;51.76;101516.38;4878350;29;2361;-55
2022/09/06 06:40:15;;;;;;;;;;;;;;;16.28;52.42;101515.47;4882338;29;1910;-57
2022/09/06 06:42:41;;;;;;;;;;;;;;;16.18;52.98;101515.34;4869031;29;1352;-54
2022/09/06 06:45:06;;;;;;;;;;;;;;;16.12;53.04;101517.19;4875185;29;984;-54
2022/09/06 06:47:32;;;;;;;;;;;;;;;16.03;53.24;101513.19;4877211;29;1348;-55
2022/09/06 06:49:57;;;;;;;;;;;;;;;16.02;53.22;101512.38;4882911;29;1301;-57
2022/09/06 06:52:23;;;;;;;;;;;;;;;15.97;53.54;101520.50;4877615;29;1339;-50
2022/09/06 06:54:48;;;;;;;;;;;;;;;15.88;53.87;101513.81;4880425;29;1293;-53
2022/09/06 06:57:14;;;;;;;;;;;;;;;15.88;53.93;101511.88;4884044;29;1360;-55
2022/09/06 06:59:39;;;;;;;;;;;;;;;16.81;51.77;101512.28;4881073;29;1972;-56
2022/09/06 07:02:05;;;;;;;;;;;;;;;17.24;50.91;101510.59;4881240;29;1285;-54
2022/09/06 07:04:31;;;;;;;;;;;;;;;16.56;52.83;101516.38;4871842;29;1293;-51
2022/09/06 07:06:56;;;;;;;;;;;;;;;16.38;53.35;101521.13;4876784;29;2433;-55
2022/09/06 07:09:22;;;;;;;;;;;;;;;16.30;53.61;101515.22;4872662;29;1017;-53
2022/09/06 07:11:47;;;;;;;;;;;;;;;16.22;53.61;101514.56;4871821;29;1096;-54
2022/09/06 07:14:13;;;;;;;;;;;;;;;16.11;53.81;101514.69;4881677;29;1130;-55
2022/09/06 07:16:39;;;;;;;;;;;;;;;16.03;54.25;101519.53;4882868;29;1285;-56
2022/09/06 07:19:04;;;;;;;;;;;;;;;16.01;54.35;101516.19;4883791;29;1907;-55
2022/09/06 07:21:30;;;;;;;;;;;;;;;15.97;54.36;101520.50;4882935;29;1230;-54
2022/09/06 07:23:55;;;;;;;;;;;;;;;15.97;54.35;101517.78;4880919;29;1165;-56
2022/09/06 07:26:27;;;;;;;;;;;;;;;15.95;54.45;101524.59;4879639;29;1135;-56
2022/09/06 07:28:57;;;;;;;;;;;;;;;15.89;54.42;101521.78;4882923;29;1210;-55
2022/09/06 07:31:22;;;;;;;;;;;;;;;17.19;51.90;101521.50;4883562;29;1174;-54
2022/09/06 07:33:48;;;;;;;;;;;;;;;16.88;52.91;101523.91;4882927;29;1162;-54
2022/09/06 07:36:13;;;;;;;;;;;;;;;16.44;54.07;101533.00;4879765;29;1323;-56
2022/09/06 07:38:39;;;;;;;;;;;;;;;16.25;54.31;101526.94;4875856;29;2186;-54
2022/09/06 07:41:05;;;;;;;;;;;;;;;16.15;54.84;101529.56;4880571;29;1914;-52
2022/09/06 07:43:31;;;;;;;;;;;;;;;16.12;54.61;101535.53;4878785;29;1301;-54
2022/09/06 07:45:57;;;;;;;;;;;;;;;16.00;54.99;101535.66;4879101;29;1233;-54
2022/09/06 07:48:23;;;;;;;;;;;;;;;16.01;54.82;101532.66;4879507;29;1102;-54
2022/09/06 07:50:48;;;;;;;;;;;;;;;15.98;55.05;101532.34;4881628;29;1308;-55
2022/09/06 07:53:14;;;;;;;;;;;;;;;17.35;52.22;101515.09;4882447;29;1284;-54
2022/09/06 07:55:39;;;;;;;;;;;;;;;16.72;53.60;101526.47;4882988;29;1309;-55
2022/09/06 07:58:05;;;;;;;;;;;;;;;16.42;54.40;101532.41;4881309;29;1300;-53
2022/09/06 08:00:30;;;;;;;;;;;;;;;16.27;54.84;101533.03;4881372;29;1915;-54
2022/09/06 08:02:56;;;;;;;;;;;;;;;16.20;55.02;101537.84;4879335;29;1332;-54
2022/09/06 08:05:21;;;;;;;;;;;;;;;16.11;55.25;101531.97;4874033;29;1392;-54
2022/09/06 08:07:47;;;;;;;;;;;;;;;16.07;55.08;101522.56;4871972;29;2385;-54
2022/09/06 08:10:13;;;;;;;;;;;;;;;16.01;55.20;101531.81;4878963;29;1067;-54
2022/09/06 08:12:38;;;;;;;;;;;;;;;17.39;52.44;101534.63;4874691;29;1162;-53
2022/09/06 08:15:04;;;;;;;;;;;;;;;16.94;53.49;101528.38;4875893;29;1268;-53
2022/09/06 08:17:34;;;;;;;;;;;;;;;16.52;54.61;101531.69;4871772;29;1077;-52
2022/09/06 08:19:59;;;;;;;;;;;;;;;16.37;55.14;101524.94;4866682;29;1907;-56
2022/09/06 08:22:25;;;;;;;;;;;;;;;16.29;54.90;101525.38;4875895;29;1189;-48
2022/09/06 08:24:50;;;;;;;;;;;;;;;16.18;55.38;101526.31;4879957;29;1123;-51
2022/09/06 08:27:15;;;;;;;;;;;;;;;16.15;55.35;101521.34;4882729;29;977;-52
2022/09/06 08:29:41;;;;;;;;;;;;;;;16.07;55.40;101520.69;4876126;29;1187;-51
2022/09/06 08:32:06;;;;;;;;;;;;;;;16.06;55.28;101521.75;4870766;29;985;-54
2022/09/06 08:34:32;;;;;;;;;;;;;;;16.02;55.47;101506.88;4875781;29;1140;-54
2022/09/06 08:36:57;;;;;;;;;;;;;;;15.97;55.42;101503.22;4866799;29;2250;-50
2022/09/06 08:39:23;;;;;;;;;;;;;;;16.26;55.33;101506.66;4864692;29;1911;-52
2022/09/06 08:41:50;;;;;;;;;;;;;;;17.30;52.94;101503.22;4876949;29;1164;-50
2022/09/06 08:44:23;;;;;;;;;;;;;;;16.56;55.00;101508.13;4876209;29;981;-51
2022/09/06 08:46:54;;;;;;;;;;;;;;;16.38;55.26;101507.38;4874455;29;1041;-53
2022/09/06 08:49:20;;;;;;;;;;;;;;;16.28;55.73;101504.47;4870913;29;1057;-53
2022/09/06 08:51:45;;;;;;;;;;;;;;;16.17;55.59;101498.06;4872645;29;1228;-51
2022/09/06 08:54:13;;;;;;;;;;;;;;;16.22;55.60;101494.53;4879703;29;1021;-54
2022/09/06 08:56:41;;;;;;;;;;;;;;;16.10;55.76;101491.06;4877936;29;1053;-53
2022/09/06 08:59:13;;;;;;;;;;;;;;;17.51;52.78;101487.72;4875638;29;1891;-50
2022/09/06 09:01:42;;;;;;;;;;;;;;;16.82;54.73;101497.47;4878529;29;1363;-52
2022/09/06 09:04:10;;;;;;;;;;;;;;;16.54;55.54;101485.63;4876374;29;1262;-48
2022/09/06 09:06:37;;;;;;;;;;;;;;;16.39;55.74;101492.56;4877141;29;2385;-54
2022/09/06 09:09:06;;;;;;;;;;;;;;;16.31;55.72;101481.19;4873391;29;1222;-49
2022/09/06 09:11:36;;;;;;;;;;;;;;;16.20;56.14;101482.97;4877316;29;1411;-56
2022/09/06 09:14:05;;;;;;;;;;;;;;;16.19;55.95;101467.59;4875563;29;1138;-54
2022/09/06 09:16:31;;;;;;;;;;;;;;;16.15;55.95;101472.75;4880387;29;1079;-54
2022/09/06 09:18:58;;;;;;;;;;;;;;;16.08;55.89;101472.94;4879164;29;1116;-56
2022/09/06 09:21:24;;;;;;;;;;;;;;;16.07;56.06;101471.31;4877052;29;1980;-54
2022/09/06 09:23:53;;;;;;;;;;;;;;;16.00;56.19;101470.63;4870956;29;1139;-51
2022/09/06 09:26:19;;;;;;;;;;;;;;;16.00;56.13;101465.13;4880920;29;1123;-53
2022/09/06 09:29:03;;;;;;;;;;;;;;;17.35;53.85;101473.84;4879497;29;1059;-51
2022/09/06 09:31:33;;;;;;;;;;;;;;;16.79;55.18;101467.75;4877953;29;1178;-55
2022/09/06 09:34:03;;;;;;;;;;;;;;;16.50;55.83;101473.50;4880576;29;1000;-55
2022/09/06 09:36:28;;;;;;;;;;;;;;;16.35;56.04;101466.69;4871813;29;1143;-54
2022/09/06 09:38:55;;;;;;;;;;;;;;;16.23;56.18;101466.84;4875140;29;2196;-55
2022/09/06 09:41:24;;;;;;;;;;;;;;;16.15;56.30;101467.28;4879334;29;1971;-52
2022/09/06 09:43:56;;;;;;;;;;;;;;;16.08;56.50;101459.22;4877905;29;1220;-54
2022/09/06 09:46:22;;;;;;;;;;;;;;;16.10;56.13;101469.13;4874160;29;1317;-55
2022/09/06 09:49:00;;;;;;;;;;;;;;;16.05;56.37;101461.66;4878288;29;1297;-54
2022/09/06 09:51:26;;;;;;;;;;;;;;;15.96;56.25;101468.66;4880057;29;1123;-53
2022/09/06 09:54:02;;;;;;;;;;;;;;;16.00;56.34;101462.41;4878082;29;1316;-54
2022/09/06 09:56:40;;;;;;;;;;;;;;;16.68;55.29;101462.16;4880081;29;1127;-54
2022/09/06 09:59:15;;;;;;;;;;;;;;;17.01;54.78;101457.59;4877847;29;1915;-52
2022/09/06 10:01:40;;;;;;;;;;;;;;;16.50;56.40;101457.84;4880570;29;1285;-54
2022/09/06 10:04:06;;;;;;;;;;;;;;;16.38;56.25;101457.97;4877131;29;1289;-56
2022/09/06 10:06:31;;;;;;;;;;;;;;;16.23;56.36;101444.88;4879351;29;1787;-57
2022/09/06 10:08:57;;;;;;;;;;;;;;;16.13;56.75;101458.47;4877829;29;1328;-54
2022/09/06 10:11:39;;;;;;;;;;;;;;;16.10;56.55;101452.66;4877535;29;1384;-55
2022/09/06 10:14:11;;;;;;;;;;;;;;;16.07;56.59;101454.84;4873618;29;1158;-53
2022/09/06 10:16:42;;;;;;;;;;;;;;;16.00;56.38;101451.44;4872805;29;1344;-53
2022/09/06 10:19:20;;;;;;;;;;;;;;;15.99;56.22;101443.44;4875756;29;1911;-55
2022/09/06 10:21:45;;;;;;;;;;;;;;;16.56;56.00;101439.50;4868133;29;1207;-52
2022/09/06 10:24:13;;;;;;;;;;;;;;;17.09;54.81;101437.88;4872511;29;1345;-55
2022/09/06 10:26:42;;;;;;;;;;;;;;;16.54;56.36;101431.53;4876733;29;1336;-55
2022/09/06 10:29:10;;;;;;;;;;;;;;;16.35;56.55;101422.78;4877404;29;1143;-55
2022/09/06 10:31:40;;;;;;;;;;;;;;;16.25;56.76;101423.50;4880136;29;1351;-57
2022/09/06 10:34:30;;;;;;;;;;;;;;;16.16;56.63;101432.44;4880767;29;1122;-58
2022/09/06 10:37:01;;;;;;;;;;;;;;;16.11;56.84;101416.72;4873854;29;2266;-57
2022/09/06 10:39:45;;;;;;;;;;;;;;;16.06;56.59;101414.75;4876411;29;1971;-56
2022/09/06 10:42:10;;;;;;;;;;;;;;;16.02;56.47;101418.25;4876912;29;1273;-54
2022/09/06 10:44:48;;;;;;;;;;;;;;;15.97;56.86;101415.47;4877199;29;1372;-56
2022/09/06 10:47:14;;;;;;;;;;;;;;;16.38;56.16;101414.06;4881044;29;1147;-54
2022/09/06 10:49:40;;;;;;;;;;;;;;;17.58;54.26;101406.63;4882580;29;1292;-56
2022/09/06 10:52:07;;;;;;;;;;;;;;;16.75;56.24;101396.06;4878264;29;1040;-57
2022/09/06 10:54:32;;;;;;;;;;;;;;;16.49;56.82;101394.94;4882969;29;1317;-56
2022/09/06 10:56:59;;;;;;;;;;;;;;;16.36;56.85;101399.75;4882746;29;1375;-56
2022/09/06 10:59:28;;;;;;;;;;;;;;;16.31;56.73;101405.16;4882739;29;1903;-54
2022/09/06 11:01:53;;;;;;;;;;;;;;;16.22;56.60;101406.72;4879934;29;1142;-54
2022/09/06 11:04:24;;;;;;;;;;;;;;;16.14;56.92;101410.72;4880487;29;1217;-54
2022/09/06 11:06:52;;;;;;;;;;;;;;;16.07;56.95;101410.94;4882561;29;2231;-55
2022/09/06 11:09:34;;;;;;;;;;;;;;;16.03;56.74;101404.31;4879678;29;1329;-54
2022/09/06 11:12:18;;;;;;;;;;;;;;;16.00;56.82;101404.78;4879870;29;1342;-53
2022/09/06 11:14:44;;;;;;;;;;;;;;;17.09;55.61;101406.84;4882398;29;1249;-58
2022/09/06 11:17:14;;;;;;;;;;;;;;;17.26;55.43;101398.44;4879871;29;1328;-57
2022/09/06 11:19:43;;;;;;;;;;;;;;;16.70;57.02;101398.75;4880872;29;1980;-55
2022/09/06 11:22:11;;;;;;;;;;;;;;;16.51;56.88;101406.50;4881983;29;1265;-57
2022/09/06 11:24:43;;;;;;;;;;;;;;;16.40;56.96;101392.66;4873290;29;1321;-54
2022/09/06 11:27:14;;;;;;;;;;;;;;;16.33;57.11;101396.72;4882685;29;1043;-55
2022/09/06 11:29:40;;;;;;;;;;;;;;;16.25;57.15;101387.81;4868537;29;1104;-54
2022/09/06 11:32:24;;;;;;;;;;;;;;;16.20;57.06;101393.25;4867283;29;971;-54
2022/09/06 11:34:53;;;;;;;;;;;;;;;16.18;56.89;101383.63;4874780;29;1024;-53
2022/09/06 11:37:23;;;;;;;;;;;;;;;16.13;56.76;101392.63;4873148;29;2389;-52
2022/09/06 11:40:00;;;;;;;;;;;;;;;16.09;56.80;101383.25;4875749;29;1899;-54
2022/09/06 11:43:01;;;;;;;;;;;;;;;16.04;56.80;101389.50;4875506;29;1028;-54
2022/09/06 11:45:39;;;;;;;;;;;;;;;16.01;56.79;101389.19;4825138;29;1161;-53
2022/09/06 11:48:22;;;;;;;;;;;;;;;15.97;56.65;101383.38;4873771;29;1142;-55
2022/09/06 11:50:57;;;;;;;;;;;;;;;16.14;56.83;101386.03;4873271;29;1013;-53
2022/09/06 11:53:26;;;;;;;;;;;;;;;17.47;55.00;101382.91;4880620;29;1120;-54
2022/09/06 11:56:01;;;;;;;;;;;;;;;16.77;56.88;101388.38;4873521;29;1385;-53
2022/09/06 11:58:31;;;;;;;;;;;;;;;16.46;57.23;101373.50;4876098;29;969;-53
2022/09/06 12:01:12;;;;;;;;;;;;;;;16.39;57.24;101379.19;4876286;29;1964;-56
2022/09/06 12:03:40;;;;;;;;;;;;;;;16.23;57.05;101369.97;4874327;29;1108;-52
2022/09/06 12:06:24;;;;;;;;;;;;;;;16.18;57.19;101369.91;4880419;29;965;-52
2022/09/06 12:08:53;;;;;;;;;;;;;;;16.10;57.20;101360.19;4867589;29;2496;-56
2022/09/06 12:11:31;;;;;;;;;;;;;;;16.04;57.31;101370.28;4881951;29;1005;-53
2022/09/06 12:13:58;;;;;;;;;;;;;;;16.06;57.02;101368.13;4878955;29;1143;-51
2022/09/06 12:16:24;;;;;;;;;;;;;;;16.15;57.03;101373.16;4882738;29;1073;-52
2022/09/06 12:18:49;;;;;;;;;;;;;;;17.61;55.21;101364.88;4874814;29;1040;-52
2022/09/06 12:21:30;;;;;;;;;;;;;;;16.87;56.85;101363.75;4874160;29;1976;-46
2022/09/06 12:23:56;;;;;;;;;;;;;;;16.55;57.46;101366.44;4875978;29;1049;-54
2022/09/06 12:26:40;;;;;;;;;;;;;;;16.45;57.33;101366.34;4874431;29;1017;-56
2022/09/06 12:29:08;;;;;;;;;;;;;;;16.34;57.45;101359.91;4877313;29;1021;-54
2022/09/06 12:31:35;;;;;;;;;;;;;;;16.31;56.91;101363.19;4870775;29;1124;-56
2022/09/06 12:34:12;;;;;;;;;;;;;;;16.23;57.03;101359.00;4878704;29;1207;-55
2022/09/06 12:36:45;;;;;;;;;;;;;;;16.19;57.04;101368.81;4877574;29;2377;-51
2022/09/06 12:39:11;;;;;;;;;;;;;;;16.12;57.17;101357.19;4878276;29;1915;-54
2022/09/06 12:41:47;;;;;;;;;;;;;;;16.09;56.86;101366.78;4880621;29;965;-52
2022/09/06 12:44:13;;;;;;;;;;;;;;;16.02;56.92;101364.25;4876559;29;1462;-54
2022/09/06 12:46:42;;;;;;;;;;;;;;;16.07;57.06;101367.06;4871503;29;1300;-54
2022/09/06 12:49:09;;;;;;;;;;;;;;;17.48;55.67;101367.28;4872303;29;908;-49
2022/09/06 12:51:35;;;;;;;;;;;;;;;16.75;57.29;101366.66;4872219;29;894;-47